Time,TemperatureF,DewpointF,PressureIn,WindDirection,WindDirectionDegrees,WindSpeedMPH,WindSpeedGustMPH,Humidity,HourlyPrecipIn,Conditions,Clouds,dailyrainin,SoftwareType,DateUTC
2013-02-17 00:00:00,20.9,17.6,29.70,NNE,23,6.7,17.0,87,0.00,,,0.00,WUHU216HW,2013-02-17 09:00:00,
2013-02-17 00:05:00,20.9,17.6,29.70,North,0,7.2,17.0,87,0.00,,,0.00,WUHU216HW,2013-02-17 09:05:00,
2013-02-17 00:10:00,21.1,17.7,29.70,NNW,338,6.0,11.9,87,0.00,,,0.00,WUHU216HW,2013-02-17 09:10:00,
2013-02-17 00:15:00,21.1,17.7,29.70,NNE,23,4.3,14.1,87,0.00,,,0.00,WUHU216HW,2013-02-17 09:15:00,
2013-02-17 00:20:00,20.9,17.6,29.70,NNW,338,7.4,14.1,87,0.00,,,0.00,WUHU216HW,2013-02-17 09:20:00,
2013-02-17 00:26:00,20.9,17.6,29.70,NNW,338,6.9,11.9,87,0.00,,,0.00,WUHU216HW,2013-02-17 09:26:00,
2013-02-17 00:31:00,21.1,17.7,29.69,North,0,4.9,13.9,87,0.00,,,0.00,WUHU216HW,2013-02-17 09:31:00,
2013-02-17 00:36:00,21.1,17.7,29.69,NNW,338,11.4,13.9,87,0.00,,,0.00,WUHU216HW,2013-02-17 09:36:00,
2013-02-17 00:41:00,21.1,17.7,29.69,NE,45,9.6,12.8,87,0.00,,,0.00,WUHU216HW,2013-02-17 09:41:00,
2013-02-17 00:46:00,21.1,17.7,29.69,North,0,8.5,15.0,87,0.00,,,0.00,WUHU216HW,2013-02-17 09:46:00,
2013-02-17 00:51:00,21.1,17.7,29.69,NNE,23,6.3,15.0,87,0.00,,,0.00,WUHU216HW,2013-02-17 09:51:00,
2013-02-17 00:56:00,21.1,17.7,29.69,North,0,8.5,15.0,87,0.00,,,0.00,WUHU216HW,2013-02-17 09:56:00,
2013-02-17 01:01:00,21.2,17.9,29.68,NNE,23,10.3,15.0,87,0.00,,,0.00,WUHU216HW,2013-02-17 10:01:00,
2013-02-17 01:06:00,21.2,17.9,29.68,North,0,10.5,13.4,87,0.00,,,0.00,WUHU216HW,2013-02-17 10:06:00,
2013-02-17 01:11:00,21.2,17.9,29.68,North,0,8.5,13.4,87,0.00,,,0.00,WUHU216HW,2013-02-17 10:11:00,
2013-02-17 01:16:00,21.2,17.9,29.68,NNE,23,13.9,13.9,87,0.00,,,0.00,WUHU216HW,2013-02-17 10:16:00,
2013-02-17 01:21:00,21.2,17.9,29.68,North,0,7.8,13.9,87,0.00,,,0.00,WUHU216HW,2013-02-17 10:21:00,
2013-02-17 01:26:00,21.2,17.9,29.68,North,0,8.1,12.3,87,0.00,,,0.00,WUHU216HW,2013-02-17 10:26:00,
2013-02-17 01:31:00,21.1,17.7,29.68,North,0,11.9,11.9,87,0.00,,,0.00,WUHU216HW,2013-02-17 10:31:00,
2013-02-17 01:36:00,21.2,17.9,29.67,NE,45,9.6,11.9,87,0.00,,,0.00,WUHU216HW,2013-02-17 10:36:00,
2013-02-17 01:41:00,21.1,17.7,29.67,NNE,23,17.9,17.9,87,0.00,,,0.00,WUHU216HW,2013-02-17 10:41:00,
2013-02-17 01:46:00,21.2,17.9,29.68,NNW,338,6.3,17.9,87,0.00,,,0.00,WUHU216HW,2013-02-17 10:46:00,
2013-02-17 01:51:00,21.1,17.7,29.68,NNE,23,11.9,15.2,87,0.00,,,0.00,WUHU216HW,2013-02-17 10:51:00,
2013-02-17 01:56:00,21.2,17.9,29.67,NNE,23,16.6,16.6,87,0.00,,,0.00,WUHU216HW,2013-02-17 10:56:00,
2013-02-17 02:01:00,21.2,17.9,29.67,North,0,4.0,16.6,87,0.00,,,0.00,WUHU216HW,2013-02-17 11:01:00,
2013-02-17 02:06:00,21.2,17.9,29.67,North,0,12.3,16.6,87,0.00,,,0.00,WUHU216HW,2013-02-17 11:06:00,
2013-02-17 02:11:00,21.2,17.9,29.67,North,0,12.8,15.7,87,0.00,,,0.00,WUHU216HW,2013-02-17 11:11:00,
2013-02-17 02:16:00,21.2,17.9,29.66,NNE,23,8.5,16.3,87,0.00,,,0.00,WUHU216HW,2013-02-17 11:16:00,
2013-02-17 02:21:00,21.2,17.9,29.66,NNE,23,6.9,16.6,87,0.00,,,0.00,WUHU216HW,2013-02-17 11:21:00,
2013-02-17 02:26:00,21.2,17.9,29.66,NNE,23,7.4,16.6,87,0.00,,,0.00,WUHU216HW,2013-02-17 11:26:00,
2013-02-17 02:31:00,21.2,17.9,29.66,ENE,68,12.1,17.2,87,0.00,,,0.00,WUHU216HW,2013-02-17 11:31:00,
2013-02-17 02:36:00,21.2,17.9,29.65,North,0,6.3,17.2,87,0.00,,,0.00,WUHU216HW,2013-02-17 11:36:00,
2013-02-17 02:41:00,21.2,17.9,29.65,NNE,23,14.5,19.5,87,0.00,,,0.00,WUHU216HW,2013-02-17 11:41:00,
2013-02-17 02:46:00,21.2,18.2,29.65,North,0,9.2,19.5,88,0.00,,,0.00,WUHU216HW,2013-02-17 11:46:00,
2013-02-17 02:51:00,21.2,18.2,29.65,North,0,7.6,15.7,88,0.00,,,0.00,WUHU216HW,2013-02-17 11:51:00,
2013-02-17 02:56:00,21.2,18.2,29.65,NNE,23,13.0,14.5,88,0.00,,,0.00,WUHU216HW,2013-02-17 11:56:00,
2013-02-17 03:01:00,21.2,18.2,29.65,South,180,8.5,14.5,88,0.00,,,0.00,WUHU216HW,2013-02-17 12:01:00,
2013-02-17 03:06:00,21.2,18.5,29.65,NW,315,6.7,14.5,89,0.00,,,0.00,WUHU216HW,2013-02-17 12:06:00,
2013-02-17 03:11:00,21.2,18.5,29.64,NNE,23,10.7,13.6,89,0.00,,,0.00,WUHU216HW,2013-02-17 12:11:00,
2013-02-17 03:16:00,21.2,18.5,29.64,North,0,7.6,15.9,89,0.00,,,0.00,WUHU216HW,2013-02-17 12:16:00,
2013-02-17 03:21:00,21.2,18.5,29.64,NNE,23,9.2,15.9,89,0.00,,,0.00,WUHU216HW,2013-02-17 12:21:00,
2013-02-17 03:26:00,21.2,18.5,29.64,North,0,12.8,12.8,89,0.00,,,0.00,WUHU216HW,2013-02-17 12:26:00,
2013-02-17 03:31:00,21.2,18.7,29.64,North,0,7.2,14.8,90,0.00,,,0.00,WUHU216HW,2013-02-17 12:31:00,
2013-02-17 03:36:00,21.2,18.7,29.64,NNW,338,9.8,14.8,90,0.00,,,0.00,WUHU216HW,2013-02-17 12:36:00,
2013-02-17 03:41:00,21.2,18.7,29.63,North,0,6.3,13.4,90,0.00,,,0.00,WUHU216HW,2013-02-17 12:41:00,
2013-02-17 03:46:00,21.2,18.7,29.63,North,0,6.5,12.8,90,0.00,,,0.00,WUHU216HW,2013-02-17 12:46:00,
2013-02-17 03:51:00,21.4,18.9,29.63,North,0,9.2,14.1,90,0.00,,,0.00,WUHU216HW,2013-02-17 12:51:00,
2013-02-17 03:56:00,21.4,18.9,29.63,North,0,5.6,17.7,90,0.00,,,0.00,WUHU216HW,2013-02-17 12:56:00,
2013-02-17 04:01:00,21.4,18.9,29.63,North,0,6.3,17.7,90,0.00,,,0.00,WUHU216HW,2013-02-17 13:01:00,
2013-02-17 04:06:00,21.4,18.9,29.62,North,0,12.8,14.8,90,0.00,,,0.00,WUHU216HW,2013-02-17 13:06:00,
2013-02-17 04:11:00,21.4,18.9,29.62,North,0,3.6,15.9,90,0.00,,,0.00,WUHU216HW,2013-02-17 13:11:00,
2013-02-17 04:16:00,21.2,18.7,29.62,North,0,14.3,15.9,90,0.00,,,0.00,WUHU216HW,2013-02-17 13:16:00,
2013-02-17 04:21:00,21.2,18.7,29.62,NNW,338,6.7,14.3,90,0.00,,,0.00,WUHU216HW,2013-02-17 13:21:00,
2013-02-17 04:26:00,21.2,18.7,29.62,NNW,338,12.3,14.3,90,0.00,,,0.00,WUHU216HW,2013-02-17 13:26:00,
2013-02-17 04:31:00,21.2,18.7,29.62,NNE,23,9.8,13.2,90,0.00,,,0.00,WUHU216HW,2013-02-17 13:31:00,
2013-02-17 04:36:00,21.2,18.7,29.61,NNE,23,12.8,16.8,90,0.00,,,0.00,WUHU216HW,2013-02-17 13:36:00,
2013-02-17 04:41:00,21.2,18.7,29.61,NNE,23,9.2,16.8,90,0.00,,,0.00,WUHU216HW,2013-02-17 13:41:00,
2013-02-17 04:46:00,21.2,18.7,29.61,NE,45,11.6,15.2,90,0.00,,,0.00,WUHU216HW,2013-02-17 13:46:00,
2013-02-17 04:51:00,21.2,18.7,29.61,North,0,8.5,15.2,90,0.00,,,0.00,WUHU216HW,2013-02-17 13:51:00,
2013-02-17 04:56:00,21.1,18.5,29.61,NNE,23,6.9,15.2,90,0.00,,,0.00,WUHU216HW,2013-02-17 13:56:00,
2013-02-17 05:01:00,21.2,18.7,29.61,NNW,338,8.5,15.2,90,0.00,,,0.00,WUHU216HW,2013-02-17 14:01:00,
2013-02-17 05:06:00,21.1,18.5,29.61,NNE,23,8.3,14.3,90,0.00,,,0.00,WUHU216HW,2013-02-17 14:06:00,
2013-02-17 05:11:00,21.1,18.5,29.61,NNW,338,8.7,12.3,90,0.00,,,0.00,WUHU216HW,2013-02-17 14:11:00,
2013-02-17 05:16:00,21.1,18.5,29.61,North,0,15.4,16.8,90,0.00,,,0.00,WUHU216HW,2013-02-17 14:16:00,
2013-02-17 05:21:00,21.1,18.5,29.61,North,0,10.3,16.8,90,0.00,,,0.00,WUHU216HW,2013-02-17 14:21:00,
2013-02-17 05:26:00,21.1,18.5,29.60,NNW,338,8.9,14.3,90,0.00,,,0.00,WUHU216HW,2013-02-17 14:26:00,
2013-02-17 05:31:00,21.1,18.5,29.60,NE,45,15.0,15.0,90,0.00,,,0.00,WUHU216HW,2013-02-17 14:31:00,
2013-02-17 05:36:00,21.1,18.5,29.60,North,0,4.7,15.2,90,0.00,,,0.00,WUHU216HW,2013-02-17 14:36:00,
2013-02-17 05:41:00,21.1,18.5,29.60,North,0,7.8,17.2,90,0.00,,,0.00,WUHU216HW,2013-02-17 14:41:00,
2013-02-17 05:46:00,21.1,18.5,29.60,North,0,5.8,17.2,90,0.00,,,0.00,WUHU216HW,2013-02-17 14:46:00,
2013-02-17 05:51:00,21.1,18.5,29.59,NNE,23,9.2,16.8,90,0.00,,,0.00,WUHU216HW,2013-02-17 14:51:00,
2013-02-17 05:56:00,21.1,18.5,29.59,North,0,7.6,15.0,90,0.00,,,0.00,WUHU216HW,2013-02-17 14:56:00,
2013-02-17 06:01:00,21.1,18.5,29.59,NNE,23,9.2,15.0,90,0.00,,,0.00,WUHU216HW,2013-02-17 15:01:00,
2013-02-17 06:06:00,21.1,18.5,29.59,NNE,23,7.6,13.9,90,0.00,,,0.00,WUHU216HW,2013-02-17 15:06:00,
2013-02-17 06:11:00,21.1,18.5,29.59,NNE,23,9.4,13.9,90,0.00,,,0.00,WUHU216HW,2013-02-17 15:11:00,
2013-02-17 06:16:00,21.1,18.5,29.59,NE,45,12.1,16.1,90,0.00,,,0.00,WUHU216HW,2013-02-17 15:16:00,
2013-02-17 06:21:00,21.1,18.5,29.59,NNE,23,5.4,16.1,90,0.00,,,0.00,WUHU216HW,2013-02-17 15:21:00,
2013-02-17 06:26:00,21.1,18.5,29.59,NNE,23,16.1,16.6,90,0.00,,,0.00,WUHU216HW,2013-02-17 15:26:00,
2013-02-17 06:31:00,20.9,18.4,29.59,NNE,23,11.0,19.5,90,0.00,,,0.00,WUHU216HW,2013-02-17 15:31:00,
2013-02-17 06:36:00,20.9,18.4,29.58,West,270,7.8,19.5,90,0.00,,,0.00,WUHU216HW,2013-02-17 15:36:00,
2013-02-17 06:41:00,20.9,18.4,29.59,North,0,12.5,19.0,90,0.00,,,0.00,WUHU216HW,2013-02-17 15:41:00,
2013-02-17 06:46:00,20.9,18.4,29.59,North,0,7.4,19.0,90,0.00,,,0.00,WUHU216HW,2013-02-17 15:46:00,
2013-02-17 06:51:00,20.9,18.4,29.59,North,0,13.6,16.3,90,0.00,,,0.00,WUHU216HW,2013-02-17 15:51:00,
2013-02-17 06:56:00,20.9,18.4,29.59,North,0,8.7,16.3,90,0.00,,,0.00,WUHU216HW,2013-02-17 15:56:00,
2013-02-17 07:01:00,20.9,18.4,29.59,NNE,23,14.3,14.3,90,0.00,,,0.00,WUHU216HW,2013-02-17 16:01:00,
2013-02-17 07:06:00,20.9,18.4,29.58,North,0,5.1,18.6,90,0.00,,,0.00,WUHU216HW,2013-02-17 16:06:00,
2013-02-17 07:11:00,20.9,18.4,29.58,North,0,6.9,18.6,90,0.00,,,0.00,WUHU216HW,2013-02-17 16:11:00,
2013-02-17 07:16:00,20.9,18.4,29.58,NNE,23,8.5,16.1,90,0.00,,,0.00,WUHU216HW,2013-02-17 16:16:00,
2013-02-17 07:21:00,20.9,18.4,29.58,NNE,23,6.9,13.6,90,0.00,,,0.00,WUHU216HW,2013-02-17 16:21:00,
2013-02-17 07:26:00,20.9,18.4,29.58,North,0,5.1,12.5,90,0.00,,,0.00,WUHU216HW,2013-02-17 16:26:00,
2013-02-17 07:31:00,20.9,18.4,29.58,North,0,12.3,16.1,90,0.00,,,0.00,WUHU216HW,2013-02-17 16:31:00,
2013-02-17 07:36:00,20.9,18.4,29.58,North,0,5.4,16.1,90,0.00,,,0.00,WUHU216HW,2013-02-17 16:36:00,
2013-02-17 07:41:00,20.9,18.4,29.58,North,0,7.6,15.0,90,0.00,,,0.00,WUHU216HW,2013-02-17 16:41:00,
2013-02-17 07:46:00,20.9,18.4,29.58,North,0,13.2,13.2,90,0.00,,,0.00,WUHU216HW,2013-02-17 16:46:00,
2013-02-17 07:51:00,20.9,18.1,29.57,NNE,23,6.7,13.2,89,0.00,,,0.00,WUHU216HW,2013-02-17 16:51:00,
2013-02-17 07:56:00,20.9,18.1,29.57,North,0,4.0,13.2,89,0.00,,,0.00,WUHU216HW,2013-02-17 16:56:00,
2013-02-17 08:01:00,20.9,18.1,29.57,NNW,338,4.7,13.4,89,0.00,,,0.00,WUHU216HW,2013-02-17 17:01:00,
2013-02-17 08:06:00,20.9,18.1,29.57,NNE,23,4.7,13.4,89,0.00,,,0.00,WUHU216HW,2013-02-17 17:06:00,
2013-02-17 08:11:00,20.9,18.1,29.57,NNE,23,6.3,10.3,89,0.00,,,0.00,WUHU216HW,2013-02-17 17:11:00,
2013-02-17 08:16:00,20.9,18.1,29.57,North,0,8.3,10.3,89,0.00,,,0.00,WUHU216HW,2013-02-17 17:16:00,
2013-02-17 08:21:00,20.7,17.9,29.57,NNE,23,4.7,10.1,89,0.00,,,0.00,WUHU216HW,2013-02-17 17:21:00,
2013-02-17 08:26:00,20.7,17.9,29.57,North,0,6.5,11.4,89,0.00,,,0.00,WUHU216HW,2013-02-17 17:26:00,
2013-02-17 08:31:00,20.9,18.1,29.57,NNE,23,6.9,12.1,89,0.00,,,0.00,WUHU216HW,2013-02-17 17:31:00,
2013-02-17 08:36:00,20.9,18.1,29.57,NNE,23,7.6,12.1,89,0.00,,,0.00,WUHU216HW,2013-02-17 17:36:00,
2013-02-17 08:41:00,20.9,18.1,29.57,North,0,6.3,15.7,89,0.00,,,0.00,WUHU216HW,2013-02-17 17:41:00,
2013-02-17 08:46:00,20.9,18.1,29.57,NNE,23,5.6,15.7,89,0.00,,,0.00,WUHU216HW,2013-02-17 17:46:00,
2013-02-17 08:51:00,20.9,18.1,29.56,North,0,4.0,10.7,89,0.00,,,0.00,WUHU216HW,2013-02-17 17:51:00,
2013-02-17 08:56:00,21.1,18.3,29.56,NNE,23,4.0,11.2,89,0.00,,,0.00,WUHU216HW,2013-02-17 17:56:00,
2013-02-17 09:01:00,21.1,18.3,29.56,NNE,23,7.6,15.2,89,0.00,,,0.00,WUHU216HW,2013-02-17 18:01:00,
2013-02-17 09:06:00,21.1,18.3,29.55,NNE,23,3.4,15.2,89,0.00,,,0.00,WUHU216HW,2013-02-17 18:06:00,
2013-02-17 09:11:00,21.1,18.3,29.56,ESE,113,8.1,12.1,89,0.00,,,0.00,WUHU216HW,2013-02-17 18:11:00,
2013-02-17 09:16:00,21.1,18.3,29.56,NE,45,5.4,11.4,89,0.00,,,0.00,WUHU216HW,2013-02-17 18:16:00,
2013-02-17 09:21:00,21.2,18.5,29.56,NE,45,5.1,11.4,89,0.00,,,0.00,WUHU216HW,2013-02-17 18:21:00,
2013-02-17 09:26:00,21.2,18.5,29.56,NNE,23,9.8,11.0,89,0.00,,,0.00,WUHU216HW,2013-02-17 18:26:00,
2013-02-17 09:31:00,21.2,18.5,29.56,North,0,5.6,11.0,89,0.00,,,0.00,WUHU216HW,2013-02-17 18:31:00,
2013-02-17 09:36:00,21.4,18.6,29.56,North,0,2.9,10.1,89,0.00,,,0.00,WUHU216HW,2013-02-17 18:36:00,
2013-02-17 09:41:00,21.4,18.6,29.56,North,0,2.5,8.7,89,0.00,,,0.00,WUHU216HW,2013-02-17 18:41:00,
2013-02-17 09:46:00,21.6,18.8,29.56,NNE,23,2.9,9.8,89,0.00,,,0.00,WUHU216HW,2013-02-17 18:46:00,
2013-02-17 09:51:00,21.8,19.0,29.56,North,0,7.6,9.8,89,0.00,,,0.00,WUHU216HW,2013-02-17 18:51:00,
2013-02-17 09:56:00,21.8,19.0,29.56,North,0,10.7,10.7,89,0.00,,,0.00,WUHU216HW,2013-02-17 18:56:00,
2013-02-17 10:01:00,21.8,19.0,29.56,NNE,23,3.6,10.7,89,0.00,,,0.00,WUHU216HW,2013-02-17 19:01:00,
2013-02-17 10:06:00,22.0,18.9,29.56,North,0,4.0,10.7,88,0.00,,,0.00,WUHU216HW,2013-02-17 19:06:00,
2013-02-17 10:11:00,22.0,18.9,29.56,North,0,4.9,10.3,88,0.00,,,0.00,WUHU216HW,2013-02-17 19:11:00,
2013-02-17 10:16:00,22.1,19.1,29.56,North,0,5.4,9.8,88,0.00,,,0.00,WUHU216HW,2013-02-17 19:16:00,
2013-02-17 10:21:00,22.1,19.1,29.56,NE,45,4.7,9.8,88,0.00,,,0.00,WUHU216HW,2013-02-17 19:21:00,
2013-02-17 10:26:00,22.3,19.3,29.55,NNE,23,6.3,9.2,88,0.00,,,0.00,WUHU216HW,2013-02-17 19:26:00,
2013-02-17 10:31:00,22.3,19.3,29.56,North,0,2.5,12.1,88,0.00,,,0.00,WUHU216HW,2013-02-17 19:31:00,
2013-02-17 10:36:00,22.7,19.6,29.56,North,0,6.3,13.0,88,0.00,,,0.00,WUHU216HW,2013-02-17 19:36:00,
2013-02-17 10:41:00,22.7,19.4,29.56,North,0,4.0,13.0,87,0.00,,,0.00,WUHU216HW,2013-02-17 19:41:00,
2013-02-17 10:46:00,23.0,20.3,29.56,NE,45,5.8,11.2,89,0.00,,,0.00,WUHU216HW,2013-02-17 19:46:00,
2013-02-17 10:51:00,23.4,20.6,29.56,NE,45,5.1,10.3,89,0.00,,,0.00,WUHU216HW,2013-02-17 19:51:00,
2013-02-17 10:56:00,23.6,20.8,29.56,North,0,3.8,7.4,89,0.00,,,0.00,WUHU216HW,2013-02-17 19:56:00,
2013-02-17 11:01:00,23.8,20.7,29.56,North,0,4.9,10.5,88,0.00,,,0.00,WUHU216HW,2013-02-17 20:01:00,
2013-02-17 11:06:00,23.8,20.7,29.56,North,0,6.9,10.5,88,0.00,,,0.00,WUHU216HW,2013-02-17 20:06:00,
2013-02-17 11:11:00,23.8,20.7,29.56,NE,45,4.3,11.9,88,0.00,,,0.00,WUHU216HW,2013-02-17 20:11:00,
2013-02-17 11:16:00,24.1,21.1,29.56,ESE,113,2.2,11.9,88,0.00,,,0.00,WUHU216HW,2013-02-17 20:16:00,
2013-02-17 11:21:00,24.1,21.1,29.56,North,0,4.7,8.1,88,0.00,,,0.00,WUHU216HW,2013-02-17 20:21:00,
2013-02-17 11:26:00,24.1,20.8,29.56,NE,45,4.3,9.4,87,0.00,,,0.00,WUHU216HW,2013-02-17 20:26:00,
2013-02-17 11:31:00,24.1,20.8,29.56,NNW,338,6.9,9.4,87,0.00,,,0.00,WUHU216HW,2013-02-17 20:31:00,
2013-02-17 11:36:00,24.1,20.8,29.56,North,0,3.4,9.8,87,0.00,,,0.00,WUHU216HW,2013-02-17 20:36:00,
2013-02-17 11:41:00,24.1,20.8,29.56,North,0,4.5,12.3,87,0.00,,,0.00,WUHU216HW,2013-02-17 20:41:00,
2013-02-17 11:46:00,24.1,20.5,29.56,NNW,338,4.0,12.3,86,0.00,,,0.00,WUHU216HW,2013-02-17 20:46:00,
2013-02-17 11:51:00,24.1,20.5,29.56,North,0,6.3,10.3,86,0.00,,,0.00,WUHU216HW,2013-02-17 20:51:00,
2013-02-17 11:56:00,24.1,20.5,29.56,NNE,23,7.8,9.2,86,0.00,,,0.00,WUHU216HW,2013-02-17 20:56:00,
2013-02-17 12:01:00,24.3,21.0,29.56,NNE,23,9.6,9.6,87,0.00,,,0.00,WUHU216HW,2013-02-17 21:01:00,
2013-02-17 12:06:00,24.5,20.9,29.56,NNE,23,4.9,9.6,86,0.00,,,0.00,WUHU216HW,2013-02-17 21:06:00,
2013-02-17 12:11:00,24.5,21.2,29.56,North,0,2.9,9.6,87,0.00,,,0.00,WUHU216HW,2013-02-17 21:11:00,
2013-02-17 12:16:00,24.7,21.1,29.56,NNE,23,6.3,8.5,86,0.00,,,0.00,WUHU216HW,2013-02-17 21:16:00,
2013-02-17 12:21:00,24.8,21.5,29.56,NNE,23,4.9,11.2,87,0.00,,,0.00,WUHU216HW,2013-02-17 21:21:00,
2013-02-17 12:26:00,24.8,21.5,29.56,NNE,23,6.3,11.2,87,0.00,,,0.00,WUHU216HW,2013-02-17 21:26:00,
2013-02-17 12:31:00,25.0,21.4,29.56,NNW,338,3.1,8.7,86,0.00,,,0.00,WUHU216HW,2013-02-17 21:31:00,
2013-02-17 12:36:00,25.2,21.9,29.56,ENE,68,5.1,9.2,87,0.00,,,0.00,WUHU216HW,2013-02-17 21:36:00,
2013-02-17 12:41:00,25.2,21.6,29.56,North,0,3.8,9.2,86,0.00,,,0.00,WUHU216HW,2013-02-17 21:41:00,
2013-02-17 12:46:00,25.6,22.0,29.56,NNE,23,6.3,8.3,86,0.00,,,0.00,WUHU216HW,2013-02-17 21:46:00,
2013-02-17 12:51:00,25.4,21.5,29.56,NNE,23,6.5,10.1,85,0.00,,,0.00,WUHU216HW,2013-02-17 21:51:00,
2013-02-17 12:56:00,25.4,21.8,29.56,NNE,23,4.0,10.1,86,0.00,,,0.00,WUHU216HW,2013-02-17 21:56:00,
2013-02-17 13:01:00,25.4,21.8,29.56,NNE,23,5.4,8.5,86,0.00,,,0.00,WUHU216HW,2013-02-17 22:01:00,
2013-02-17 13:06:00,25.4,21.8,29.56,North,0,5.6,8.5,86,0.00,,,0.00,WUHU216HW,2013-02-17 22:06:00,
2013-02-17 13:11:00,25.4,21.8,29.56,North,0,5.4,7.2,86,0.00,,,0.00,WUHU216HW,2013-02-17 22:11:00,
2013-02-17 13:16:00,25.6,22.0,29.56,NNE,23,2.7,7.6,86,0.00,,,0.00,WUHU216HW,2013-02-17 22:16:00,
2013-02-17 13:21:00,25.6,22.0,29.56,NNE,23,2.5,8.1,86,0.00,,,0.00,WUHU216HW,2013-02-17 22:21:00,
2013-02-17 13:26:00,25.7,22.2,29.56,NE,45,2.9,8.1,86,0.00,,,0.00,WUHU216HW,2013-02-17 22:26:00,
2013-02-17 13:31:00,25.9,22.3,29.56,North,0,1.6,5.4,86,0.00,,,0.00,WUHU216HW,2013-02-17 22:31:00,
2013-02-17 13:36:00,26.3,22.6,29.56,NE,45,0.7,4.5,86,0.00,,,0.00,WUHU216HW,2013-02-17 22:36:00,
2013-02-17 13:41:00,26.5,22.8,29.56,NNE,23,3.1,5.4,86,0.00,,,0.00,WUHU216HW,2013-02-17 22:41:00,
2013-02-17 13:46:00,26.5,22.8,29.56,NNE,23,2.5,5.4,86,0.00,,,0.00,WUHU216HW,2013-02-17 22:46:00,
2013-02-17 13:51:00,26.5,22.8,29.56,NNE,23,1.1,4.9,86,0.00,,,0.00,WUHU216HW,2013-02-17 22:51:00,
2013-02-17 13:56:00,26.3,22.3,29.56,North,0,2.5,4.7,85,0.00,,,0.00,WUHU216HW,2013-02-17 22:56:00,
2013-02-17 14:01:00,25.9,22.0,29.56,NNE,23,2.9,4.7,85,0.00,,,0.00,WUHU216HW,2013-02-17 23:01:00,
2013-02-17 14:06:00,25.9,22.3,29.56,ENE,68,3.4,4.7,86,0.00,,,0.00,WUHU216HW,2013-02-17 23:06:00,
2013-02-17 14:11:00,26.3,22.6,29.56,NNE,23,2.2,5.6,86,0.00,,,0.00,WUHU216HW,2013-02-17 23:11:00,
2013-02-17 14:16:00,26.3,22.6,29.56,ENE,68,1.8,5.6,86,0.00,,,0.00,WUHU216HW,2013-02-17 23:16:00,
2013-02-17 14:21:00,26.3,22.6,29.56,North,0,1.1,4.0,86,0.00,,,0.00,WUHU216HW,2013-02-17 23:21:00,
2013-02-17 14:26:00,26.1,22.1,29.55,NNW,338,3.4,4.0,85,0.00,,,0.00,WUHU216HW,2013-02-17 23:26:00,
2013-02-17 14:31:00,25.7,22.2,29.56,North,0,2.2,4.0,86,0.00,,,0.00,WUHU216HW,2013-02-17 23:31:00,
2013-02-17 14:36:00,25.9,22.6,29.56,North,0,2.2,6.3,87,0.00,,,0.00,WUHU216HW,2013-02-17 23:36:00,
2013-02-17 14:41:00,25.9,22.6,29.55,NNE,23,2.7,6.9,87,0.00,,,0.00,WUHU216HW,2013-02-17 23:41:00,
2013-02-17 14:46:00,26.1,22.8,29.55,NNE,23,4.0,6.9,87,0.00,,,0.00,WUHU216HW,2013-02-17 23:46:00,
2013-02-17 14:51:00,26.1,22.8,29.56,North,0,1.3,6.7,87,0.00,,,0.00,WUHU216HW,2013-02-17 23:51:00,
2013-02-17 14:56:00,26.1,22.8,29.56,North,0,2.5,6.0,87,0.00,,,0.00,WUHU216HW,2013-02-17 23:56:00,
2013-02-17 15:01:00,26.3,23.0,29.56,North,0,2.5,6.3,87,0.00,,,0.00,WUHU216HW,2013-02-18 00:01:00,
2013-02-17 15:06:00,26.5,23.0,29.56,NNE,23,4.3,6.3,87,0.00,,,0.00,WUHU216HW,2013-02-18 00:06:00,
2013-02-17 15:11:00,26.5,23.0,29.56,North,0,2.5,5.8,87,0.00,,,0.00,WUHU216HW,2013-02-18 00:11:00,
2013-02-17 15:16:00,26.3,23.0,29.56,NNW,338,3.1,5.8,87,0.00,,,0.00,WUHU216HW,2013-02-18 00:16:00,
2013-02-17 15:21:00,26.3,23.0,29.56,NNW,338,1.8,4.7,87,0.00,,,0.00,WUHU216HW,2013-02-18 00:21:00,
2013-02-17 15:26:00,26.3,23.0,29.56,North,0,1.6,6.0,87,0.00,,,0.00,WUHU216HW,2013-02-18 00:26:00,
2013-02-17 15:31:00,26.5,23.0,29.56,North,0,2.2,7.4,87,0.00,,,0.00,WUHU216HW,2013-02-18 00:31:00,
2013-02-17 15:36:00,26.3,23.0,29.56,North,0,2.2,7.4,87,0.00,,,0.00,WUHU216HW,2013-02-18 00:36:00,
2013-02-17 15:41:00,26.3,23.2,29.56,NNW,338,1.1,4.5,88,0.00,,,0.00,WUHU216HW,2013-02-18 00:41:00,
2013-02-17 15:46:00,26.3,23.2,29.56,North,0,1.3,3.4,88,0.00,,,0.00,WUHU216HW,2013-02-18 00:46:00,
2013-02-17 15:51:00,26.5,23.4,29.56,North,0,1.1,3.4,88,0.00,,,0.00,WUHU216HW,2013-02-18 00:51:00,
2013-02-17 15:56:00,26.5,23.4,29.57,NNW,338,1.3,3.4,88,0.00,,,0.00,WUHU216HW,2013-02-18 00:56:00,
2013-02-17 16:01:00,26.6,23.6,29.57,North,0,1.1,3.4,88,0.00,,,0.00,WUHU216HW,2013-02-18 01:01:00,
2013-02-17 16:06:00,26.6,23.6,29.57,NNE,23,4.7,4.7,88,0.00,,,0.00,WUHU216HW,2013-02-18 01:06:00,
2013-02-17 16:11:00,26.6,23.6,29.57,North,0,2.9,5.4,88,0.00,,,0.00,WUHU216HW,2013-02-18 01:11:00,
2013-02-17 16:16:00,26.5,23.0,29.57,North,0,1.8,5.4,87,0.00,,,0.00,WUHU216HW,2013-02-18 01:16:00,
2013-02-17 16:21:00,26.5,23.4,29.57,North,0,9.2,9.2,88,0.00,,,0.00,WUHU216HW,2013-02-18 01:21:00,
2013-02-17 16:26:00,26.5,23.4,29.57,NNW,338,2.5,9.2,88,0.00,,,0.00,WUHU216HW,2013-02-18 01:26:00,
2013-02-17 16:31:00,26.5,23.4,29.57,North,0,4.9,8.7,88,0.00,,,0.00,WUHU216HW,2013-02-18 01:31:00,
2013-02-17 16:36:00,26.3,23.2,29.58,North,0,6.9,8.5,88,0.00,,,0.00,WUHU216HW,2013-02-18 01:36:00,
2013-02-17 16:41:00,26.3,23.2,29.58,North,0,4.5,10.5,88,0.00,,,0.00,WUHU216HW,2013-02-18 01:41:00,
2013-02-17 16:46:00,25.9,22.9,29.58,North,0,3.6,10.5,88,0.00,,,0.00,WUHU216HW,2013-02-18 01:46:00,
2013-02-17 16:51:00,25.9,22.9,29.58,NNE,23,4.7,6.7,88,0.00,,,0.00,WUHU216HW,2013-02-18 01:51:00,
2013-02-17 16:56:00,25.7,23.0,29.58,North,0,5.4,9.2,89,0.00,,,0.00,WUHU216HW,2013-02-18 01:56:00,
2013-02-17 17:01:00,25.9,23.1,29.59,North,0,2.5,9.2,89,0.00,,,0.00,WUHU216HW,2013-02-18 02:01:00,
2013-02-17 17:06:00,25.9,23.1,29.59,North,0,1.8,6.9,89,0.00,,,0.00,WUHU216HW,2013-02-18 02:06:00,
2013-02-17 17:11:00,25.9,23.1,29.58,North,0,2.5,5.8,89,0.00,,,0.00,WUHU216HW,2013-02-18 02:11:00,
2013-02-17 17:16:00,25.9,23.1,29.58,North,0,3.6,5.6,89,0.00,,,0.00,WUHU216HW,2013-02-18 02:16:00,
2013-02-17 17:21:00,25.9,23.1,29.59,North,0,1.1,3.6,89,0.00,,,0.00,WUHU216HW,2013-02-18 02:21:00,
2013-02-17 17:26:00,25.7,23.0,29.59,WNW,293,1.8,2.5,89,0.00,,,0.00,WUHU216HW,2013-02-18 02:26:00,
2013-02-17 17:31:00,25.6,22.8,29.59,NNW,338,0.2,2.2,89,0.00,,,0.00,WUHU216HW,2013-02-18 02:31:00,
2013-02-17 17:36:00,25.6,22.8,29.60,WNW,293,0.4,2.2,89,0.00,,,0.00,WUHU216HW,2013-02-18 02:36:00,
2013-02-17 17:41:00,25.6,22.8,29.60,WNW,293,1.1,1.6,89,0.00,,,0.00,WUHU216HW,2013-02-18 02:41:00,
2013-02-17 17:46:00,25.6,23.0,29.60,WNW,293,1.3,1.8,90,0.00,,,0.00,WUHU216HW,2013-02-18 02:46:00,
2013-02-17 17:51:00,25.6,22.8,29.60,NNW,338,1.1,1.8,89,0.00,,,0.00,WUHU216HW,2013-02-18 02:51:00,
2013-02-17 17:56:00,25.6,23.0,29.60,NNW,338,1.1,2.7,90,0.00,,,0.00,WUHU216HW,2013-02-18 02:56:00,
2013-02-17 18:01:00,25.6,23.0,29.60,NW,315,0.4,2.7,90,0.00,,,0.00,WUHU216HW,2013-02-18 03:01:00,
2013-02-17 18:06:00,25.6,23.0,29.60,WNW,293,0.4,2.2,90,0.00,,,0.00,WUHU216HW,2013-02-18 03:06:00,
2013-02-17 18:11:00,25.6,23.0,29.60,West,270,1.3,1.8,90,0.00,,,0.00,WUHU216HW,2013-02-18 03:11:00,
2013-02-17 18:16:00,25.6,23.0,29.61,NNW,338,0.4,1.6,90,0.00,,,0.00,WUHU216HW,2013-02-18 03:16:00,
2013-02-17 18:21:00,25.6,23.0,29.61,West,270,0.0,1.6,90,0.00,,,0.00,WUHU216HW,2013-02-18 03:21:00,
2013-02-17 18:26:00,25.6,23.0,29.61,West,270,1.1,1.6,90,0.00,,,0.00,WUHU216HW,2013-02-18 03:26:00,
2013-02-17 18:31:00,25.4,22.9,29.61,WSW,248,1.1,1.3,90,0.00,,,0.00,WUHU216HW,2013-02-18 03:31:00,
2013-02-17 18:36:00,25.4,22.9,29.61,WSW,248,0.4,1.3,90,0.00,,,0.00,WUHU216HW,2013-02-18 03:36:00,
2013-02-17 18:41:00,25.4,22.9,29.62,WSW,248,0.4,1.1,90,0.00,,,0.00,WUHU216HW,2013-02-18 03:41:00,
2013-02-17 18:46:00,25.4,22.9,29.62,WSW,248,0.0,1.1,90,0.00,,,0.00,WUHU216HW,2013-02-18 03:46:00,
2013-02-17 18:51:00,25.4,22.9,29.62,WSW,248,0.0,1.1,90,0.00,,,0.00,WUHU216HW,2013-02-18 03:51:00,
2013-02-17 18:56:00,25.4,22.9,29.62,WSW,248,0.0,0.0,90,0.00,,,0.00,WUHU216HW,2013-02-18 03:56:00,
2013-02-17 19:01:00,25.4,22.9,29.62,WSW,248,0.0,0.0,90,0.00,,,0.00,WUHU216HW,2013-02-18 04:01:00,
2013-02-17 19:06:00,25.4,22.9,29.62,WSW,248,0.0,0.0,90,0.00,,,0.00,WUHU216HW,2013-02-18 04:06:00,
2013-02-17 19:11:00,25.2,22.7,29.62,WSW,248,0.0,0.0,90,0.00,,,0.00,WUHU216HW,2013-02-18 04:11:00,
2013-02-17 19:16:00,25.2,22.7,29.62,WSW,248,0.4,0.4,90,0.00,,,0.00,WUHU216HW,2013-02-18 04:16:00,
2013-02-17 19:21:00,25.2,22.7,29.63,WSW,248,0.0,0.4,90,0.00,,,0.00,WUHU216HW,2013-02-18 04:21:00,
2013-02-17 19:26:00,25.2,22.7,29.63,WSW,248,0.0,0.4,90,0.00,,,0.00,WUHU216HW,2013-02-18 04:26:00,
2013-02-17 19:31:00,25.2,22.7,29.63,WSW,248,0.7,0.9,90,0.00,,,0.00,WUHU216HW,2013-02-18 04:31:00,
2013-02-17 19:36:00,25.2,22.7,29.63,WSW,248,0.0,0.9,90,0.00,,,0.00,WUHU216HW,2013-02-18 04:36:00,
2013-02-17 19:41:00,25.2,22.7,29.64,WSW,248,0.0,0.7,90,0.00,,,0.00,WUHU216HW,2013-02-18 04:41:00,
2013-02-17 19:46:00,25.2,22.7,29.64,WSW,248,0.0,0.0,90,0.00,,,0.00,WUHU216HW,2013-02-18 04:46:00,
2013-02-17 19:51:00,25.2,22.7,29.64,WSW,248,0.0,0.0,90,0.00,,,0.00,WUHU216HW,2013-02-18 04:51:00,
2013-02-17 19:56:00,25.2,22.7,29.64,WSW,248,0.0,0.0,90,0.00,,,0.00,WUHU216HW,2013-02-18 04:56:00,
2013-02-17 20:00:00,25.2,22.7,29.64,WSW,248,0.0,0.0,90,0.00,,,0.00,WUHU216HW,2013-02-18 05:00:00,
2013-02-17 20:05:00,25.0,22.5,29.65,WSW,248,0.0,0.2,90,0.00,,,0.00,WUHU216HW,2013-02-18 05:05:00,
2013-02-17 20:10:00,25.0,22.5,29.65,WSW,248,0.0,0.2,90,0.00,,,0.00,WUHU216HW,2013-02-18 05:10:00,
2013-02-17 20:15:00,25.0,22.5,29.65,WSW,248,0.0,0.0,90,0.00,,,0.00,WUHU216HW,2013-02-18 05:15:00,
2013-02-17 20:20:00,25.0,22.5,29.65,WSW,248,0.0,0.0,90,0.00,,,0.00,WUHU216HW,2013-02-18 05:20:00,
2013-02-17 20:25:00,25.0,22.5,29.65,WSW,248,0.4,0.7,90,0.00,,,0.00,WUHU216HW,2013-02-18 05:25:00,
2013-02-17 20:30:00,25.0,22.5,29.65,WSW,248,0.4,0.9,90,0.00,,,0.00,WUHU216HW,2013-02-18 05:30:00,
2013-02-17 20:35:00,25.0,22.5,29.65,WSW,248,0.2,1.1,90,0.00,,,0.00,WUHU216HW,2013-02-18 05:35:00,
2013-02-17 20:40:00,25.2,22.7,29.65,WSW,248,0.0,1.1,90,0.00,,,0.00,WUHU216HW,2013-02-18 05:40:00,
2013-02-17 20:45:00,25.2,22.7,29.66,WSW,248,0.9,0.9,90,0.00,,,0.00,WUHU216HW,2013-02-18 05:45:00,
2013-02-17 20:50:00,25.0,22.5,29.66,WSW,248,0.0,0.9,90,0.00,,,0.00,WUHU216HW,2013-02-18 05:50:00,
2013-02-17 20:55:00,25.0,22.5,29.66,WSW,248,0.0,0.9,90,0.00,,,0.00,WUHU216HW,2013-02-18 05:55:00,
2013-02-17 21:00:00,25.0,22.5,29.66,WSW,248,0.0,0.0,90,0.00,,,0.00,WUHU216HW,2013-02-18 06:00:00,
2013-02-17 21:05:00,25.0,22.5,29.66,WSW,248,0.0,0.0,90,0.00,,,0.00,WUHU216HW,2013-02-18 06:05:00,
2013-02-17 21:10:00,25.0,22.5,29.67,WSW,248,0.4,1.1,90,0.00,,,0.00,WUHU216HW,2013-02-18 06:10:00,
2013-02-17 21:15:00,25.0,22.5,29.67,WSW,248,0.9,1.1,90,0.00,,,0.00,WUHU216HW,2013-02-18 06:15:00,
2013-02-17 21:20:00,25.0,22.5,29.67,WSW,248,0.7,1.3,90,0.00,,,0.00,WUHU216HW,2013-02-18 06:20:00,
2013-02-17 21:25:00,25.0,22.5,29.67,WSW,248,1.1,1.3,90,0.00,,,0.00,WUHU216HW,2013-02-18 06:25:00,
2013-02-17 21:30:00,25.0,22.2,29.67,WSW,248,0.9,1.3,89,0.00,,,0.00,WUHU216HW,2013-02-18 06:30:00,
2013-02-17 21:35:00,25.0,22.2,29.68,WSW,248,1.1,1.3,89,0.00,,,0.00,WUHU216HW,2013-02-18 06:35:00,
2013-02-17 21:40:00,24.8,22.1,29.68,North,0,0.7,1.8,89,0.00,,,0.00,WUHU216HW,2013-02-18 06:40:00,
2013-02-17 21:45:00,24.8,22.1,29.69,North,0,1.1,1.8,89,0.00,,,0.00,WUHU216HW,2013-02-18 06:45:00,
2013-02-17 21:50:00,24.8,22.1,29.70,North,0,0.9,1.8,89,0.00,,,0.00,WUHU216HW,2013-02-18 06:50:00,
2013-02-17 21:55:00,24.8,22.3,29.70,North,0,1.8,1.8,90,0.00,,,0.00,WUHU216HW,2013-02-18 06:55:00,
2013-02-17 22:00:00,24.8,22.3,29.70,North,0,1.6,2.2,90,0.00,,,0.00,WUHU216HW,2013-02-18 07:00:00,
2013-02-17 22:05:00,24.7,21.9,29.70,North,0,2.0,3.8,89,0.00,,,0.00,WUHU216HW,2013-02-18 07:05:00,
2013-02-17 22:10:00,24.7,21.9,29.70,North,0,1.1,3.8,89,0.00,,,0.00,WUHU216HW,2013-02-18 07:10:00,
2013-02-17 22:15:00,24.7,21.9,29.71,NE,45,0.2,2.5,89,0.00,,,0.00,WUHU216HW,2013-02-18 07:15:00,
2013-02-17 22:20:00,24.5,21.7,29.71,North,0,1.3,2.5,89,0.00,,,0.00,WUHU216HW,2013-02-18 07:20:00,
2013-02-17 22:25:00,24.5,22.0,29.71,North,0,1.3,1.6,90,0.00,,,0.00,WUHU216HW,2013-02-18 07:25:00,
2013-02-17 22:30:00,24.5,22.0,29.72,NNE,23,0.4,1.6,90,0.00,,,0.00,WUHU216HW,2013-02-18 07:30:00,
2013-02-17 22:35:00,24.3,21.5,29.72,ENE,68,1.6,1.8,89,0.00,,,0.00,WUHU216HW,2013-02-18 07:35:00,
2013-02-17 22:40:00,24.3,21.5,29.72,NE,45,2.0,2.0,89,0.00,,,0.00,WUHU216HW,2013-02-18 07:40:00,
2013-02-17 22:45:00,24.3,21.5,29.72,NE,45,2.0,3.4,89,0.00,,,0.00,WUHU216HW,2013-02-18 07:45:00,
2013-02-17 22:50:00,24.1,21.3,29.72,East,90,2.5,4.7,89,0.00,,,0.00,WUHU216HW,2013-02-18 07:50:00,
2013-02-17 22:55:00,23.8,20.7,29.72,NNE,23,4.0,6.3,88,0.00,,,0.00,WUHU216HW,2013-02-18 07:55:00,
2013-02-17 23:00:00,23.4,20.3,29.73,NE,45,4.7,6.3,88,0.00,,,0.00,WUHU216HW,2013-02-18 08:00:00,
2013-02-17 23:05:00,23.0,20.0,29.73,North,0,3.6,5.4,88,0.00,,,0.00,WUHU216HW,2013-02-18 08:05:00,
2013-02-17 23:10:00,22.7,19.6,29.73,ENE,68,6.0,6.9,88,0.00,,,0.00,WUHU216HW,2013-02-18 08:10:00,
2013-02-17 23:15:00,22.3,19.3,29.74,NE,45,3.8,6.9,88,0.00,,,0.00,WUHU216HW,2013-02-18 08:15:00,
2013-02-17 23:20:00,22.0,18.9,29.74,ENE,68,6.5,6.5,88,0.00,,,0.00,WUHU216HW,2013-02-18 08:20:00,
2013-02-17 23:25:00,21.6,18.5,29.74,ESE,113,2.0,6.5,88,0.00,,,0.00,WUHU216HW,2013-02-18 08:25:00,
2013-02-17 23:30:00,21.2,18.2,29.75,East,90,2.2,6.5,88,0.00,,,0.00,WUHU216HW,2013-02-18 08:30:00,
2013-02-17 23:35:00,21.2,17.9,29.75,NE,45,2.9,4.9,87,0.00,,,0.00,WUHU216HW,2013-02-18 08:35:00,
2013-02-17 23:40:00,21.1,18.0,29.75,NNE,23,1.8,4.9,88,0.00,,,0.00,WUHU216HW,2013-02-18 08:40:00,
2013-02-17 23:45:00,21.1,18.0,29.75,ENE,68,0.2,3.4,88,0.00,,,0.00,WUHU216HW,2013-02-18 08:45:00,
2013-02-17 23:50:00,20.9,17.8,29.76,NNE,23,1.3,3.4,88,0.00,,,0.00,WUHU216HW,2013-02-18 08:50:00,
2013-02-17 23:55:00,20.7,17.6,29.76,NNE,23,2.9,3.8,88,0.00,,,0.00,WUHU216HW,2013-02-18 08:55:00,